createdAt,value
2023-04-16T00:02:00.942Z,66.09
2023-04-16T00:04:28.183Z,65.95
2023-04-16T00:06:55.441Z,63.53
2023-04-16T00:09:22.472Z,64.99
2023-04-16T00:11:49.437Z,63.84
2023-04-16T00:14:16.509Z,64.55
2023-04-16T00:16:43.486Z,64.02
2023-04-16T00:19:10.847Z,63.98
2023-04-16T00:21:37.903Z,66.19
2023-04-16T00:24:04.863Z,65.50
2023-04-16T00:26:31.797Z,64.88
2023-04-16T00:28:58.897Z,64.99
2023-04-16T00:31:29.883Z,67.96
2023-04-16T00:33:57.275Z,67.11
2023-04-16T00:36:24.775Z,66.10
2023-04-16T00:38:51.724Z,64.61
2023-04-16T00:41:18.771Z,63.46
2023-04-16T00:43:45.777Z,65.51
2023-04-16T00:46:12.927Z,66.37
2023-04-16T00:48:40.750Z,66.48
2023-04-16T00:51:08.217Z,69.52
2023-04-16T00:53:35.626Z,70.51
2023-04-16T00:56:03.367Z,69.20
2023-04-16T00:58:30.889Z,67.64
2023-04-16T01:00:57.953Z,67.00
2023-04-16T01:03:27.695Z,66.49
2023-04-16T01:05:54.832Z,64.48
2023-04-16T01:08:22.180Z,64.65
2023-04-16T01:10:49.199Z,66.20
2023-04-16T01:13:16.228Z,66.75
2023-04-16T01:15:43.278Z,66.33
2023-04-16T01:18:17.120Z,64.11
2023-04-16T01:20:44.991Z,63.19
2023-04-16T01:23:11.977Z,61.91
2023-04-16T01:25:39.308Z,62.36
2023-04-16T01:28:06.623Z,61.83
2023-04-16T01:30:33.602Z,64.70
2023-04-16T01:33:14.779Z,63.46
2023-04-16T01:35:41.905Z,64.74
2023-04-16T01:38:09.114Z,65.92
2023-04-16T01:40:36.599Z,63.69
2023-04-16T01:43:03.946Z,64.46
2023-04-16T01:45:34.436Z,65.49
2023-04-16T01:48:01.556Z,63.69
2023-04-16T01:50:29.019Z,66.64
2023-04-16T01:52:55.995Z,69.30
2023-04-16T01:55:23.073Z,68.40
2023-04-16T01:57:50.885Z,69.04
2023-04-16T02:00:18.535Z,69.57
2023-04-16T02:02:45.949Z,70.69
2023-04-16T02:05:18.328Z,71.92
2023-04-16T02:07:46.915Z,71.57
2023-04-16T02:10:14.217Z,72.61
2023-04-16T02:12:41.205Z,70.09
2023-04-16T02:15:08.704Z,70.18
2023-04-16T02:17:36.019Z,67.86
2023-04-16T02:20:10.970Z,72.00
2023-04-16T02:23:07.777Z,67.70
2023-04-16T02:25:42.186Z,66.54
2023-04-16T02:28:11.818Z,65.96
2023-04-16T02:30:41.266Z,68.72
2023-04-16T02:33:09.528Z,66.23
2023-04-16T02:35:39.146Z,64.43
2023-04-16T02:38:06.515Z,64.42
2023-04-16T02:40:35.511Z,62.74
2023-04-16T02:43:02.508Z,61.98
2023-04-16T02:45:31.724Z,62.44
2023-04-16T02:47:59.034Z,67.79
2023-04-16T02:50:26.076Z,65.39
2023-04-16T02:52:53.181Z,66.09
2023-04-16T02:55:20.374Z,66.07
2023-04-16T02:57:47.308Z,63.99
2023-04-16T03:00:14.584Z,62.79
2023-04-16T03:02:42.649Z,64.38
2023-04-16T03:05:09.913Z,65.07
2023-04-16T03:07:39.194Z,62.66
2023-04-16T03:10:07.420Z,64.30
2023-04-16T03:12:34.371Z,66.63
2023-04-16T03:15:01.363Z,67.45
2023-04-16T03:17:28.581Z,65.58
2023-04-16T03:19:55.897Z,64.26
2023-04-16T03:22:23.102Z,64.68
2023-04-16T03:24:50.089Z,62.80
2023-04-16T03:27:17.047Z,64.05
2023-04-16T03:29:45.569Z,66.15
2023-04-16T03:32:12.806Z,64.28
2023-04-16T03:34:39.930Z,64.02
2023-04-16T03:37:06.970Z,65.77
2023-04-16T03:39:34.764Z,65.42
2023-04-16T03:42:02.390Z,65.82
2023-04-16T03:44:29.907Z,67.17
2023-04-16T03:46:57.128Z,68.26
2023-04-16T03:49:24.318Z,69.80
2023-04-16T03:51:52.232Z,67.39
2023-04-16T03:54:22.470Z,65.80
2023-04-16T03:56:57.123Z,63.13
2023-04-16T03:59:24.296Z,62.17
2023-04-16T04:01:51.406Z,62.85
2023-04-16T04:04:18.573Z,63.57
2023-04-16T04:06:46.694Z,62.81
2023-04-16T04:09:15.200Z,62.68
2023-04-16T04:11:42.877Z,62.93
2023-04-16T04:14:09.879Z,61.19
2023-04-16T04:16:36.944Z,63.94
2023-04-16T04:19:03.963Z,61.65
2023-04-16T04:21:31.758Z,62.12
2023-04-16T04:23:58.889Z,63.84
2023-04-16T04:26:25.875Z,64.49
2023-04-16T04:28:52.954Z,63.75
2023-04-16T04:31:20.060Z,64.06
2023-04-16T04:33:47.143Z,62.59
2023-04-16T04:36:14.206Z,63.10
2023-04-16T04:38:41.495Z,65.14
2023-04-16T04:41:08.515Z,65.28
2023-04-16T04:43:37.566Z,63.63
2023-04-16T04:46:04.694Z,67.92
2023-04-16T04:48:32.382Z,66.43
2023-04-16T04:50:59.775Z,66.83
2023-04-16T04:53:26.753Z,65.61
2023-04-16T04:55:57.604Z,65.58
2023-04-16T04:58:33.069Z,64.52
2023-04-16T05:01:00.080Z,66.15
2023-04-16T05:03:27.176Z,67.52
2023-04-16T05:05:54.226Z,65.40
2023-04-16T05:08:21.206Z,67.05
2023-04-16T05:10:48.292Z,67.87
2023-04-16T05:13:15.232Z,66.67
2023-04-16T05:15:42.280Z,66.50
2023-04-16T05:18:09.194Z,69.32
2023-04-16T05:20:37.845Z,68.45
2023-04-16T05:23:04.831Z,71.55
2023-04-16T05:25:31.857Z,69.80
2023-04-16T05:27:58.807Z,70.57
2023-04-16T05:30:25.862Z,68.51
2023-04-16T05:32:52.942Z,66.47
2023-04-16T05:35:20.023Z,65.36
2023-04-16T05:37:47.057Z,65.06
2023-04-16T05:40:14.304Z,65.28
2023-04-16T05:42:41.508Z,64.21
2023-04-16T05:45:08.992Z,66.17
2023-04-16T05:47:36.039Z,64.50
2023-04-16T05:50:03.027Z,64.84
2023-04-16T05:52:30.036Z,64.12
2023-04-16T05:54:58.172Z,65.45
2023-04-16T05:57:25.116Z,63.37
2023-04-16T05:59:52.069Z,62.89
2023-04-16T06:02:19.883Z,63.09
2023-04-16T06:04:47.013Z,66.55
2023-04-16T06:07:14.100Z,64.83
2023-04-16T06:09:41.361Z,65.19
2023-04-16T06:12:08.328Z,62.50
2023-04-16T06:14:35.858Z,62.53
2023-04-16T06:17:02.825Z,60.52
2023-04-16T06:19:29.808Z,61.67
2023-04-16T06:21:57.183Z,62.82
2023-04-16T06:24:24.221Z,61.54
2023-04-16T06:26:51.212Z,61.99
2023-04-16T06:29:18.159Z,61.42
2023-04-16T06:31:45.243Z,60.87
2023-04-16T06:34:12.553Z,61.11
2023-04-16T06:36:39.498Z,61.99
2023-04-16T06:39:06.698Z,62.08
2023-04-16T06:41:33.780Z,62.96
2023-04-16T06:44:00.789Z,61.94
2023-04-16T06:46:27.888Z,61.10
2023-04-16T06:48:54.923Z,60.00
2023-04-16T06:51:21.870Z,60.48
2023-04-16T06:53:49.378Z,60.91
2023-04-16T06:56:16.357Z,61.43
2023-04-16T06:58:43.349Z,61.21
2023-04-16T07:01:10.575Z,64.10
2023-04-16T07:03:37.911Z,61.55
2023-04-16T07:06:05.010Z,61.53
2023-04-16T07:08:31.994Z,61.49
2023-04-16T07:10:58.995Z,61.26
2023-04-16T07:13:26.081Z,61.61
2023-04-16T07:15:53.192Z,62.51
2023-04-16T07:18:20.868Z,62.28
2023-04-16T07:20:48.141Z,60.96
2023-04-16T07:23:15.069Z,61.20
2023-04-16T07:25:42.460Z,60.20
2023-04-16T07:28:09.514Z,61.19
2023-04-16T07:30:36.774Z,59.02
2023-04-16T07:33:03.881Z,59.15
2023-04-16T07:35:31.369Z,60.71
2023-04-16T07:37:58.333Z,60.92
2023-04-16T07:40:25.491Z,61.39
2023-04-16T07:42:52.491Z,61.37
2023-04-16T07:45:19.534Z,61.89
2023-04-16T07:47:46.656Z,61.47
2023-04-16T07:50:13.677Z,62.77
2023-04-16T07:52:42.492Z,64.16
2023-04-16T07:55:09.654Z,64.17
2023-04-16T07:57:36.608Z,61.22
2023-04-16T08:00:07.150Z,60.25
2023-04-16T08:02:43.821Z,59.03
2023-04-16T08:05:12.606Z,61.30
2023-04-16T08:07:39.662Z,63.53
2023-04-16T08:10:07.256Z,65.61
2023-04-16T08:12:34.339Z,63.15
2023-04-16T08:15:01.429Z,61.30
2023-04-16T08:17:29.610Z,59.84
2023-04-16T08:19:56.635Z,59.21
2023-04-16T08:22:23.618Z,57.33
2023-04-16T08:24:50.796Z,58.17
2023-04-16T08:27:19.866Z,58.60
2023-04-16T08:29:47.819Z,58.05
2023-04-16T08:32:14.788Z,56.30
2023-04-16T08:34:42.459Z,55.72
2023-04-16T08:37:09.812Z,58.12
2023-04-16T08:39:37.791Z,56.14
2023-04-16T08:42:05.671Z,56.43
2023-04-16T08:44:34.130Z,56.78
2023-04-16T08:47:01.443Z,57.67
2023-04-16T08:49:28.738Z,58.08
2023-04-16T08:51:56.389Z,58.90
2023-04-16T08:54:56.833Z,54.87
2023-04-16T08:57:24.283Z,54.25
2023-04-16T08:59:51.305Z,54.09
2023-04-16T09:02:18.364Z,54.28
2023-04-16T09:04:45.558Z,53.14
2023-04-16T09:07:12.624Z,53.85
2023-04-16T09:09:39.787Z,54.98
2023-04-16T09:12:06.725Z,53.70
2023-04-16T09:14:33.742Z,50.42
2023-04-16T09:17:02.415Z,50.08
2023-04-16T09:19:29.477Z,56.73
2023-04-16T09:21:56.467Z,55.05
2023-04-16T09:24:23.486Z,53.98
2023-04-16T09:26:52.704Z,56.96
2023-04-16T09:29:41.268Z,55.94
2023-04-16T09:32:09.503Z,55.14
2023-04-16T09:35:00.766Z,53.32
2023-04-16T09:37:31.777Z,52.16
2023-04-16T09:40:02.297Z,52.68
2023-04-16T09:42:33.325Z,54.31
2023-04-16T09:45:01.939Z,55.44
2023-04-16T09:47:44.499Z,55.09
2023-04-16T09:50:18.222Z,53.50
2023-04-16T09:52:48.918Z,54.78
2023-04-16T09:55:16.159Z,57.13
2023-04-16T09:57:43.135Z,57.50
2023-04-16T10:00:11.281Z,57.61
2023-04-16T10:02:42.788Z,55.79
2023-04-16T10:05:10.333Z,55.53
2023-04-16T10:07:37.839Z,53.60
2023-04-16T10:10:05.506Z,52.14
2023-04-16T10:12:35.738Z,50.19
2023-04-16T10:15:02.818Z,49.00
2023-04-16T10:17:30.463Z,48.14
2023-04-16T10:19:58.722Z,47.11
2023-04-16T10:22:26.220Z,48.83
2023-04-16T10:24:53.466Z,49.44
2023-04-16T10:27:20.451Z,48.39
2023-04-16T10:29:47.442Z,48.55
2023-04-16T10:32:14.735Z,48.29
2023-04-16T10:34:41.795Z,49.09
2023-04-16T10:37:08.797Z,48.30
2023-04-16T10:39:38.873Z,52.28
2023-04-16T10:42:08.934Z,52.41
2023-04-16T10:44:36.666Z,52.59
2023-04-16T10:47:03.948Z,56.28
2023-04-16T10:49:30.958Z,54.81
2023-04-16T10:51:59.768Z,55.33
2023-04-16T10:54:34.296Z,55.34
2023-04-16T10:57:04.559Z,53.59
2023-04-16T10:59:33.554Z,53.34
2023-04-16T11:02:04.313Z,51.32
2023-04-16T11:04:35.856Z,51.82
2023-04-16T11:07:11.747Z,51.26
2023-04-16T11:09:49.725Z,50.65
2023-04-16T11:12:21.561Z,53.26
2023-04-16T11:14:52.805Z,52.61
2023-04-16T11:17:20.488Z,51.97
2023-04-16T11:19:47.746Z,50.11
2023-04-16T11:22:17.189Z,49.32
2023-04-16T11:24:47.497Z,47.37
2023-04-16T11:27:15.264Z,47.59
2023-04-16T11:29:42.440Z,49.17
2023-04-16T11:32:09.430Z,49.87
2023-04-16T11:34:44.899Z,49.90
2023-04-16T11:37:12.046Z,50.06
2023-04-16T11:39:52.095Z,51.00
2023-04-16T11:42:27.009Z,51.95
2023-04-16T11:44:58.241Z,52.50
2023-04-16T11:47:25.585Z,52.08
2023-04-16T11:49:53.038Z,51.44
2023-04-16T11:52:32.900Z,50.26
2023-04-16T11:54:59.936Z,49.44
2023-04-16T11:57:30.964Z,49.87
2023-04-16T12:00:01.475Z,48.78
2023-04-16T12:02:41.123Z,48.48
2023-04-16T12:05:29.359Z,47.58
2023-04-16T12:07:59.446Z,46.37
2023-04-16T12:10:27.185Z,50.93
2023-04-16T12:12:54.206Z,52.52
2023-04-16T12:15:21.497Z,50.84
2023-04-16T12:17:48.857Z,50.17
2023-04-16T12:20:16.345Z,49.80
2023-04-16T12:22:47.468Z,50.45
2023-04-16T12:25:15.643Z,49.46
2023-04-16T12:27:49.473Z,50.95
2023-04-16T12:30:27.749Z,54.26
2023-04-16T12:33:14.641Z,52.20
2023-04-16T12:35:43.462Z,49.98
2023-04-16T12:38:10.841Z,48.46
2023-04-16T12:40:38.403Z,45.93
2023-04-16T12:43:05.584Z,47.38
2023-04-16T12:45:32.601Z,48.80
2023-04-16T12:47:59.588Z,48.14
2023-04-16T12:50:26.683Z,47.98
2023-04-16T12:52:53.604Z,46.77
2023-04-16T12:55:20.757Z,47.92
2023-04-16T12:57:49.083Z,47.96
2023-04-16T13:00:16.457Z,47.45
2023-04-16T13:02:43.470Z,45.63
2023-04-16T13:05:10.856Z,45.88
2023-04-16T13:07:37.786Z,45.22
2023-04-16T13:10:06.093Z,44.47
2023-04-16T13:12:33.110Z,44.03
2023-04-16T13:15:00.077Z,45.51
2023-04-16T13:17:27.058Z,45.82
2023-04-16T13:19:54.077Z,46.49
2023-04-16T13:22:21.073Z,45.04
2023-04-16T13:24:48.305Z,44.14
2023-04-16T13:27:16.178Z,44.45
2023-04-16T13:29:43.296Z,43.21
2023-04-16T13:32:10.306Z,42.89
2023-04-16T13:34:37.354Z,42.72
2023-04-16T13:37:04.662Z,43.09
2023-04-16T13:39:31.678Z,42.91
2023-04-16T13:41:58.686Z,42.79
2023-04-16T13:44:25.680Z,43.15
2023-04-16T13:46:52.936Z,42.48
2023-04-16T13:49:19.978Z,43.12
2023-04-16T13:51:47.018Z,42.55
2023-04-16T13:54:13.994Z,42.95
2023-04-16T13:56:40.960Z,43.72
2023-04-16T13:59:08.286Z,43.12
2023-04-16T14:01:35.463Z,43.11
2023-04-16T14:04:06.761Z,43.07
2023-04-16T14:06:34.551Z,46.82
2023-04-16T14:09:01.968Z,47.45
2023-04-16T14:11:29.033Z,48.14
2023-04-16T14:13:56.242Z,47.48
2023-04-16T14:16:23.464Z,46.84
2023-04-16T14:18:52.060Z,46.25
2023-04-16T14:21:19.221Z,47.17
2023-04-16T14:23:46.847Z,47.56
2023-04-16T14:26:14.553Z,47.84
2023-04-16T14:28:41.992Z,46.71
2023-04-16T14:31:09.149Z,48.03
2023-04-16T14:33:36.975Z,46.08
2023-04-16T14:36:04.347Z,46.67
2023-04-16T14:38:31.409Z,46.97
2023-04-16T14:41:00.355Z,45.48
2023-04-16T14:43:27.480Z,50.04
2023-04-16T14:45:54.527Z,51.51
2023-04-16T14:48:22.169Z,52.45
2023-04-16T14:50:49.322Z,50.86
2023-04-16T14:53:16.363Z,49.40
2023-04-16T14:55:43.357Z,47.42
2023-04-16T14:58:10.839Z,46.31
2023-04-16T15:00:37.937Z,45.90
2023-04-16T15:03:06.065Z,47.96
2023-04-16T15:05:33.307Z,48.95
2023-04-16T15:08:00.748Z,46.79
2023-04-16T15:10:27.878Z,48.08
2023-04-16T15:12:54.914Z,51.05
2023-04-16T15:15:21.949Z,52.76
2023-04-16T15:17:50.473Z,51.99
2023-04-16T15:20:17.662Z,51.28
2023-04-16T15:22:44.706Z,49.01
2023-04-16T15:25:11.753Z,53.53
2023-04-16T15:27:38.754Z,53.89
2023-04-16T15:30:06.916Z,54.40
2023-04-16T15:32:33.926Z,52.36
2023-04-16T15:35:03.053Z,51.84
2023-04-16T15:37:30.045Z,51.05
2023-04-16T15:39:57.421Z,51.76
2023-04-16T15:42:24.743Z,50.42
2023-04-16T15:44:51.777Z,50.47
2023-04-16T15:47:18.927Z,51.06
2023-04-16T15:49:45.967Z,51.11
2023-04-16T15:52:13.022Z,50.97
2023-04-16T15:54:40.001Z,50.59
2023-04-16T15:57:07.002Z,48.92
2023-04-16T15:59:34.002Z,50.67
2023-04-16T16:02:01.416Z,50.53
2023-04-16T16:04:28.703Z,50.05
2023-04-16T16:06:56.331Z,50.78
2023-04-16T16:09:26.812Z,48.68
2023-04-16T16:11:58.901Z,49.45
2023-04-16T16:14:26.906Z,49.99
2023-04-16T16:16:53.977Z,50.07
2023-04-16T16:19:21.271Z,50.99
2023-04-16T16:21:48.214Z,52.48
2023-04-16T16:24:15.662Z,51.67
2023-04-16T16:26:42.656Z,53.10
2023-04-16T16:29:09.909Z,54.07
2023-04-16T16:31:37.219Z,52.78
2023-04-16T16:34:04.312Z,54.14
2023-04-16T16:36:34.224Z,55.73
2023-04-16T16:39:01.986Z,54.45
2023-04-16T16:41:29.890Z,52.00
2023-04-16T16:43:58.228Z,50.88
2023-04-16T16:46:26.535Z,50.07
2023-04-16T16:48:53.625Z,51.70
2023-04-16T16:51:20.717Z,49.91
2023-04-16T16:53:47.868Z,49.46
2023-04-16T16:56:14.864Z,50.60
2023-04-16T16:58:42.066Z,48.79
2023-04-16T17:01:09.256Z,47.78
2023-04-16T17:03:36.519Z,47.77
2023-04-16T17:06:03.727Z,49.50
2023-04-16T17:08:30.834Z,48.60
2023-04-16T17:10:58.057Z,49.22
2023-04-16T17:13:25.370Z,49.65
2023-04-16T17:15:52.474Z,49.53
2023-04-16T17:18:19.562Z,48.65
2023-04-16T17:20:46.929Z,51.02
2023-04-16T17:23:14.878Z,50.27
2023-04-16T17:25:41.995Z,49.79
2023-04-16T17:28:09.058Z,49.14
2023-04-16T17:30:36.149Z,48.09
2023-04-16T17:33:04.756Z,47.49
2023-04-16T17:35:32.022Z,47.28
2023-04-16T17:37:59.038Z,47.65
2023-04-16T17:40:26.247Z,47.29
2023-04-16T17:42:53.377Z,47.23
2023-04-16T17:45:20.464Z,47.59
2023-04-16T17:47:47.612Z,47.62
2023-04-16T17:50:14.668Z,47.83
2023-04-16T17:52:42.010Z,47.42
2023-04-16T17:55:10.968Z,47.73
2023-04-16T17:57:38.008Z,47.46
2023-04-16T18:00:06.504Z,47.46
2023-04-16T18:02:42.118Z,47.19
2023-04-16T18:05:09.612Z,47.94
2023-04-16T18:07:37.707Z,48.54
2023-04-16T18:10:05.608Z,48.66
2023-04-16T18:12:32.798Z,48.42
2023-04-16T18:14:59.935Z,48.36
2023-04-16T18:17:28.357Z,48.64
2023-04-16T18:19:56.375Z,48.62
2023-04-16T18:22:24.341Z,48.74
2023-04-16T18:24:52.641Z,48.12
2023-04-16T18:27:21.579Z,48.44
2023-04-16T18:29:49.501Z,49.25
2023-04-16T18:32:17.033Z,49.84
2023-04-16T18:34:44.312Z,50.09
2023-04-16T18:37:11.456Z,48.82
2023-04-16T18:39:38.532Z,49.22
2023-04-16T18:42:05.792Z,48.66
2023-04-16T18:44:32.869Z,49.69
2023-04-16T18:47:00.051Z,49.86
2023-04-16T18:49:27.292Z,50.23
2023-04-16T18:51:56.010Z,50.28
2023-04-16T18:54:23.190Z,50.11
2023-04-16T18:56:50.468Z,50.13
2023-04-16T18:59:17.550Z,50.37
2023-04-16T19:01:44.653Z,50.37
2023-04-16T19:04:11.731Z,50.54
2023-04-16T19:06:38.829Z,50.48
2023-04-16T19:09:06.165Z,49.94
2023-04-16T19:11:33.235Z,49.63
2023-04-16T19:14:02.483Z,49.34
2023-04-16T19:16:29.809Z,49.57
2023-04-16T19:18:56.888Z,49.74
2023-04-16T19:21:24.005Z,50.49
2023-04-16T19:23:51.111Z,51.00
2023-04-16T19:26:18.283Z,51.40
2023-04-16T19:28:46.132Z,51.35
2023-04-16T19:31:13.282Z,52.07
2023-04-16T19:33:41.358Z,52.43
2023-04-16T19:36:08.447Z,52.93
2023-04-16T19:38:36.585Z,53.59
2023-04-16T19:41:03.686Z,54.35
2023-04-16T19:43:31.222Z,54.63
2023-04-16T19:45:58.369Z,55.44
2023-04-16T19:48:25.842Z,55.15
2023-04-16T19:50:52.969Z,54.37
2023-04-16T19:53:21.149Z,54.38
2023-04-16T19:55:48.360Z,53.46
2023-04-16T19:58:15.622Z,52.91
2023-04-16T20:00:43.424Z,52.33
2023-04-16T20:03:10.910Z,52.05
2023-04-16T20:05:38.026Z,52.03
2023-04-16T20:08:05.477Z,51.21
2023-04-16T20:10:32.440Z,51.07
2023-04-16T20:12:59.546Z,50.52
2023-04-16T20:15:26.626Z,50.37
2023-04-16T20:17:53.786Z,49.72
2023-04-16T20:20:22.813Z,49.96
2023-04-16T20:22:50.045Z,50.41
2023-04-16T20:25:19.162Z,50.75
2023-04-16T20:27:46.366Z,50.67
2023-04-16T20:30:13.881Z,51.94
2023-04-16T20:32:40.973Z,53.48
2023-04-16T20:35:10.940Z,53.09
2023-04-16T20:37:38.689Z,53.02
2023-04-16T20:40:08.414Z,53.02
2023-04-16T20:42:35.659Z,53.59
2023-04-16T20:45:02.761Z,53.53
2023-04-16T20:47:29.935Z,54.62
2023-04-16T20:49:58.288Z,53.05
2023-04-16T20:52:25.472Z,51.63
2023-04-16T20:54:52.571Z,51.62
2023-04-16T20:57:19.551Z,51.58
2023-04-16T20:59:46.801Z,51.27
2023-04-16T21:02:13.878Z,51.24
2023-04-16T21:04:41.257Z,52.50
2023-04-16T21:07:08.316Z,53.30
2023-04-16T21:09:35.791Z,53.20
2023-04-16T21:12:02.838Z,52.62
2023-04-16T21:14:29.753Z,53.19
2023-04-16T21:16:57.027Z,52.81
2023-04-16T21:19:24.058Z,52.42
2023-04-16T21:21:51.339Z,52.26
2023-04-16T21:24:18.362Z,52.66
2023-04-16T21:26:45.334Z,52.24
2023-04-16T21:29:12.716Z,51.97
2023-04-16T21:31:39.941Z,52.31
2023-04-16T21:34:07.148Z,51.87
2023-04-16T21:36:34.246Z,52.88
2023-04-16T21:39:01.539Z,53.07
2023-04-16T21:41:28.633Z,53.22
2023-04-16T21:43:55.822Z,52.66
2023-04-16T21:46:23.139Z,52.21
2023-04-16T21:48:50.853Z,52.40
2023-04-16T21:51:18.126Z,52.08
2023-04-16T21:53:45.160Z,52.42
2023-04-16T21:56:12.154Z,52.36
2023-04-16T21:58:39.104Z,52.20
2023-04-16T22:01:07.748Z,52.20
2023-04-16T22:03:40.223Z,52.01
2023-04-16T22:06:07.704Z,52.60
2023-04-16T22:08:34.850Z,53.57
2023-04-16T22:11:02.557Z,53.21
2023-04-16T22:13:30.141Z,53.44
2023-04-16T22:15:57.791Z,53.15
2023-04-16T22:18:25.817Z,52.70
2023-04-16T22:20:54.794Z,52.26
2023-04-16T22:23:25.132Z,52.74
2023-04-16T22:25:53.868Z,52.82
2023-04-16T22:28:20.894Z,54.23
2023-04-16T22:30:47.898Z,54.71
2023-04-16T22:33:15.104Z,53.62
2023-04-16T22:35:42.226Z,52.90
2023-04-16T22:38:10.204Z,52.53
2023-04-16T22:40:37.223Z,53.65
2023-04-16T22:43:04.639Z,53.63
2023-04-16T22:45:31.726Z,52.08
2023-04-16T22:47:58.800Z,51.93
2023-04-16T22:50:25.956Z,52.06
2023-04-16T22:52:52.907Z,51.71
2023-04-16T22:55:19.958Z,51.49
2023-04-16T22:57:47.690Z,52.10
2023-04-16T23:00:17.905Z,53.44
2023-04-16T23:02:45.230Z,53.93
2023-04-16T23:05:12.446Z,54.63
2023-04-16T23:07:39.960Z,54.35
2023-04-16T23:10:08.662Z,55.57
2023-04-16T23:12:37.551Z,55.44
2023-04-16T23:15:06.766Z,53.11
2023-04-16T23:17:35.115Z,53.88
2023-04-16T23:20:02.556Z,53.09
2023-04-16T23:22:29.668Z,53.64
2023-04-16T23:24:56.709Z,53.42
2023-04-16T23:27:23.964Z,54.85
2023-04-16T23:29:50.996Z,54.61
2023-04-16T23:32:18.069Z,54.25
2023-04-16T23:34:45.191Z,53.49
2023-04-16T23:37:12.132Z,52.39
2023-04-16T23:39:39.160Z,53.03
2023-04-16T23:42:06.396Z,53.56
2023-04-16T23:44:33.405Z,54.26
2023-04-16T23:47:00.570Z,53.92
2023-04-16T23:49:27.623Z,53.89
2023-04-16T23:51:54.681Z,52.64
2023-04-16T23:54:22.014Z,53.64
2023-04-16T23:56:49.099Z,54.04
2023-04-16T23:59:16.842Z,52.99
